Latest Weather Observations for Varanus Island

IDW60801

Issued at 6:23 pm WST Sunday 16 December 2018 (issued every 10 minutes, with the page automatically refreshed every 10 minutes)

About weather observations | Map of weather stations | Latest weather observations for WA | Other Formats
Station Details ID: 200100 Name: VARANUS ISLAND Lat: -20.66 Lon: 115.58 Height: 24.0 m
Data from the previous 72 hours. | See also: Recent months at Varanus Island
Date/Time
WST
Temp
°C
App
Temp
°C
Dew
Point
°C
Rel
Hum
%
Delta-T
°C
Wind Press
QNH
hPa
Press
MSL
hPa
Rain since
9am
mm
Dir  Spd
km/h
Gust
km/h
Spd
kts
Gust
kts
16/06:00pm 24.6 17.1 18.8 70 3.7 WSW 56 67 30 36 1007.6 1007.5 0.0
16/05:30pm 25.0 17.3 18.7 68 4.0 WSW 57 69 31 37 1007.0 - 0.0
16/05:00pm 25.3 17.7 19.0 68 4.0 W 57 65 31 35 1006.8 - 0.0
16/04:30pm 25.4 18.4 19.1 68 4.0 W 54 65 29 35 1006.8 - 0.0
16/04:00pm 25.5 18.6 19.2 68 4.0 W 54 65 29 35 1007.1 - 0.0
16/03:30pm 25.3 17.9 18.2 64 4.5 W 54 65 29 35 1007.2 - 0.0
16/03:00pm 25.9 19.3 18.1 62 4.9 W 50 61 27 33 1007.3 1007.2 0.0
16/02:30pm 25.9 19.3 18.3 63 4.8 WSW 50 63 27 34 1007.7 - 0.0
16/02:00pm 25.9 19.5 17.8 61 5.1 W 48 56 26 30 1008.3 - 0.0
16/01:30pm 25.7 19.8 17.1 59 5.4 WSW 44 56 24 30 1008.6 - 0.0
16/01:00pm 25.3 17.9 16.2 57 5.6 SW 50 59 27 32 1008.5 - 0.0
16/12:30pm 24.6 17.2 15.2 55 5.7 SW 48 59 26 32 1008.8 - 0.0
16/12:00pm 24.3 17.6 17.1 64 4.5 SW 48 59 26 32 1009.0 - 0.0
16/11:30am 23.9 17.1 16.7 64 4.4 SSW 48 57 26 31 1009.4 - 0.0
16/10:30am 23.2 15.6 16.7 67 4.0 SW 52 63 28 34 1009.6 - 0.0
16/10:00am 23.3 15.9 17.3 69 3.7 SSW 52 61 28 33 1009.7 - -
16/08:30am 22.1 13.1 15.5 66 3.9 SW 57 69 31 37 1010.0 - 0.0
16/07:30am 22.0 13.3 16.3 70 3.5 SW 57 70 31 38 1009.8 - 0.0
16/07:00am 21.7 13.5 16.2 71 3.3 SW 54 63 29 34 1009.9 - 0.0
16/06:30am 21.8 14.2 16.7 73 3.1 SW 52 63 28 34 1009.5 - 0.0
16/06:00am 22.0 14.1 16.9 73 3.1 SW 54 65 29 35 1009.2 - 0.0
16/05:30am 22.3 16.5 18.3 78 2.5 SW 46 56 25 30 1009.0 - 0.0
16/05:00am 22.1 14.1 17.5 75 2.8 SW 56 65 30 35 1008.3 - -
16/04:30am 21.5 13.9 16.7 74 2.9 SW 52 61 28 33 1007.8 - 0.0
16/04:00am 21.8 13.7 17.4 76 2.7 WSW 56 65 30 35 1007.4 - -
16/03:30am 21.7 14.1 17.7 78 2.5 WSW 54 63 29 34 1007.3 - 0.0
16/02:30am 22.0 15.2 18.6 81 2.1 WSW 52 61 28 33 1007.0 - -
16/02:00am 21.9 15.0 18.5 81 2.1 SW 52 63 28 34 1006.9 - 0.0
16/01:30am 22.1 15.7 18.7 81 2.1 SW 50 61 27 33 1006.8 - 0.0
16/01:00am 22.2 15.5 18.8 81 2.1 WSW 52 65 28 35 1006.8 - 0.0
16/12:30am 22.5 15.8 18.9 80 2.3 WSW 52 59 28 32 1007.1 - 0.0
16/12:00am 22.3 16.5 19.1 82 2.0 WSW 48 59 26 32 1007.2 - 0.0
 
Date/Time
WST
Temp
°C
App
Temp
°C
Dew
Point
°C
Rel
Hum
%
Delta-T
°C
Wind Press
QNH
hPa
Press
MSL
hPa
Rain since
9am
mm
Dir  Spd
km/h
Gust
km/h
Spd
kts
Gust
kts
15/11:00pm 22.5 16.7 19.1 81 2.2 WSW 48 57 26 31 1007.2 - 0.0
15/10:00pm 22.9 16.5 19.5 81 2.2 WSW 52 63 28 34 1006.8 - 0.0
15/09:00pm 23.3 17.6 20.1 82 2.1 WSW 50 61 27 33 1006.3 - 0.0
15/08:30pm 23.5 17.4 20.2 82 2.1 WSW 52 59 28 32 1006.1 - 0.0
15/08:00pm 23.6 17.8 19.9 80 2.4 WSW 50 61 27 33 1005.7 - 0.0
15/07:30pm 23.8 18.1 20.1 80 2.4 WSW 50 59 27 32 1005.5 - 0.0
15/07:00pm 24.4 19.1 20.3 78 2.7 WSW 48 61 26 33 1005.5 - 0.0
15/06:30pm 24.9 19.6 20.2 75 3.1 WSW 48 57 26 31 1005.2 - 0.0
15/06:00pm 25.2 18.9 19.8 72 3.5 WSW 52 59 28 32 1004.9 1004.8 0.0
15/05:30pm 26.0 21.1 20.3 71 3.7 WSW 46 54 25 29 1004.9 - 0.0
15/05:00pm 26.2 20.3 19.8 68 4.2 WSW 50 61 27 33 1004.6 - 0.0
15/04:30pm 26.5 20.3 19.9 67 4.3 WSW 52 59 28 32 1004.4 - 0.0
15/04:00pm 26.5 20.9 20.3 68 4.1 WSW 50 57 27 31 1004.4 - 0.0
15/03:30pm 26.7 21.8 20.3 68 4.2 WSW 46 56 25 30 1004.8 - 0.0
15/03:00pm 26.9 22.0 19.5 64 4.8 WSW 44 50 24 27 1005.2 1005.1 0.0
15/02:30pm 27.5 23.3 20.6 66 4.5 WSW 43 48 23 26 1005.6 - 0.0
15/02:00pm 27.3 22.8 19.9 64 4.8 WSW 43 50 23 27 1005.9 - 0.0
15/01:30pm 27.1 22.7 19.4 62 5.0 WSW 41 48 22 26 1006.2 - 0.0
15/01:00pm 26.4 22.0 19.3 65 4.6 SW 41 46 22 25 1006.4 - 0.0
15/12:30pm 25.5 20.8 18.7 66 4.3 SW 41 50 22 27 1006.6 - 0.0
15/12:00pm 25.2 20.7 19.8 72 3.5 SW 43 48 23 26 1007.0 1006.9 0.0
15/11:30am 24.8 20.5 20.3 76 2.9 SSW 43 48 23 26 1007.3 - 0.0
15/11:00am 25.5 21.9 21.0 76 3.0 SSW 41 48 22 26 1007.7 - 0.0
15/10:30am 24.5 20.5 20.2 77 2.8 SSW 41 48 22 26 1008.0 - 0.0
15/10:00am 24.5 20.5 20.2 77 2.8 SSW 41 50 22 27 1008.2 - 0.0
15/09:30am 24.3 20.7 20.2 78 2.7 SSW 39 44 21 24 1008.4 - -
15/09:00am 23.6 19.0 19.7 79 2.5 SW 43 48 23 26 1008.4 - 0.0
15/08:30am 23.5 19.7 19.8 80 2.4 SSW 39 48 21 26 1008.4 - 0.0
15/08:00am 23.3 18.8 19.9 81 2.2 SW 43 48 23 26 1008.1 - 0.0
15/07:30am 22.9 18.0 19.5 81 2.2 SW 44 52 24 28 1008.0 - 0.0
15/07:00am 22.8 18.3 19.8 83 1.9 SW 43 50 23 27 1007.8 - 0.0
15/06:30am 22.7 18.0 19.9 84 1.8 SW 44 50 24 27 1007.6 - 0.0
15/06:00am 22.5 18.0 19.9 85 1.7 SW 43 50 23 27 1007.2 - 0.0
15/05:30am 22.6 18.5 19.9 85 1.7 SW 41 50 22 27 1006.8 - 0.0
15/05:00am 22.7 18.8 20.4 87 1.5 SW 41 48 22 26 1006.6 - 0.0
15/04:30am 22.5 18.5 20.2 87 1.5 WSW 41 50 22 27 1006.4 - 0.0
15/04:00am 22.8 18.5 20.7 88 1.4 WSW 44 50 24 27 1005.9 - 0.0
15/02:30am 23.0 19.3 20.7 87 1.5 WSW 41 52 22 28 1005.8 - 0.0
15/02:00am 22.9 18.7 20.6 87 1.5 WSW 43 52 23 28 1005.9 - 0.0
15/01:30am 22.9 19.1 20.6 87 1.5 WSW 41 46 22 25 1006.1 - 0.0
15/01:00am 23.1 19.9 21.0 88 1.4 WSW 39 44 21 24 1006.4 - 0.0
15/12:30am 23.0 19.5 20.5 86 1.6 WSW 39 46 21 25 1006.8 - 0.0
15/12:00am 23.1 19.4 20.8 87 1.5 WSW 41 48 22 26 1007.1 - 0.0
 
Date/Time
WST
Temp
°C
App
Temp
°C
Dew
Point
°C
Rel
Hum
%
Delta-T
°C
Wind Press
QNH
hPa
Press
MSL
hPa
Rain since
9am
mm
Dir  Spd
km/h
Gust
km/h
Spd
kts
Gust
kts
14/11:30pm 23.3 20.1 21.0 87 1.5 WSW 39 44 21 24 1007.2 - 0.0
14/11:00pm 23.4 19.4 20.9 86 1.6 WSW 43 50 23 27 1007.4 - 0.0
14/10:30pm 23.7 20.6 21.2 86 1.6 WSW 39 44 21 24 1007.6 - 0.0
14/10:00pm 23.8 20.6 21.1 85 1.8 WSW 39 44 21 24 1007.7 - 0.0
14/09:30pm 23.8 20.6 21.1 85 1.8 WSW 39 46 21 25 1007.4 - 0.0
14/09:00pm 23.9 20.8 21.2 85 1.8 WSW 39 48 21 26 1007.3 1007.2 0.0
14/08:30pm 24.1 20.5 21.0 83 2.0 WSW 41 48 22 26 1007.0 - 0.0
14/08:00pm 24.1 20.8 20.8 82 2.2 WSW 39 46 21 25 1006.9 - 0.0
14/07:30pm 24.4 21.2 21.1 82 2.2 WSW 39 46 21 25 1006.7 - 0.0
14/07:00pm 24.6 21.7 20.9 80 2.4 WSW 37 46 20 25 1006.5 - 0.0
14/06:30pm 25.6 23.1 21.7 79 2.6 WSW 37 46 20 25 1006.1 - 0.0
14/06:00pm 26.5 22.7 21.7 75 3.2 WSW 44 50 24 27 1005.6 1005.5 0.0
14/05:30pm 27.4 24.6 21.7 71 3.8 WSW 39 46 21 25 1005.3 - 0.0
14/05:00pm 28.2 26.4 22.2 70 4.1 WSW 35 43 19 23 1005.3 - 0.0
14/04:30pm 28.7 26.8 22.0 67 4.5 W 35 43 19 23 1005.2 - 0.0
14/04:00pm 29.5 27.3 21.4 61 5.4 WSW 35 44 19 24 1005.1 - 0.0
14/03:30pm 29.5 27.7 22.2 65 4.9 W 35 39 19 21 1005.1 - 0.0
14/03:00pm 29.3 27.3 21.8 64 5.1 W 35 41 19 22 1005.3 1005.2 0.0
14/02:30pm 29.8 27.9 22.0 63 5.3 WSW 35 41 19 22 1005.6 - 0.0
14/02:00pm 29.7 28.1 21.9 63 5.3 WSW 33 41 18 22 1005.9 - 0.0
14/01:30pm 27.7 26.1 21.5 69 4.1 SW 32 35 17 19 1006.3 - 0.0
14/01:00pm 28.0 27.0 22.0 70 4.0 SSW 30 35 16 19 1006.7 - 0.0
14/12:30pm 27.8 26.3 21.8 70 4.0 SSW 32 39 17 21 1007.0 - 0.0
14/12:00pm 27.2 25.2 21.9 73 3.6 SSW 35 41 19 22 1007.4 1007.3 0.0
14/11:30am 26.6 24.7 22.0 76 3.1 SSW 35 41 19 22 1007.6 - 0.0
14/11:00am 25.8 23.7 21.7 78 2.7 SSW 35 41 19 22 1007.8 - 0.0
14/10:30am 26.0 24.1 21.4 76 3.1 SSW 33 41 18 22 1008.0 - 0.0
14/10:00am 25.6 23.3 21.3 77 2.8 SSW 35 43 19 23 1008.0 - 0.0
14/09:30am 25.3 23.1 21.4 79 2.6 SSW 35 44 19 24 1008.2 - 0.0
14/09:00am 24.7 22.0 21.2 81 2.3 SW 37 43 20 23 1008.1 1008.0 0.0
14/08:30am 24.2 20.9 20.9 82 2.2 SW 39 44 21 24 1007.9 - 0.0
14/08:00am 23.9 19.7 20.6 82 2.2 SW 43 46 23 25 1007.8 - 0.0
14/07:30am 23.6 20.2 20.7 84 1.9 SW 39 44 21 24 1007.6 - 0.0
14/07:00am 23.3 19.4 20.4 84 1.9 SW 41 50 22 27 1007.3 - 0.0
14/06:30am 23.2 19.7 20.5 85 1.8 SW 39 44 21 24 1007.2 - -
14/06:00am 23.3 20.7 20.6 85 1.8 SW 35 43 19 23 1007.2 - 0.0
14/05:30am 23.3 18.8 19.9 81 2.2 SW 43 50 23 27 1006.8 - 0.0
14/05:00am 23.4 20.1 20.0 81 2.2 SW 37 43 20 23 1006.7 - 0.0
14/04:30am 23.4 20.2 19.5 79 2.5 SW 35 41 19 22 1006.6 - 0.0
14/04:00am 23.5 18.7 19.2 77 2.7 SW 43 50 23 27 1006.4 - 0.0
14/03:00am 23.4 20.0 20.7 85 1.8 SW 39 46 21 25 1006.3 1006.2 0.0
14/01:30am 23.6 21.1 20.9 85 1.8 SW 35 39 19 21 1007.0 - 0.0
14/12:00am 23.9 21.2 21.2 85 1.8 WSW 37 43 20 23 1007.2 - 0.0
 
Date/Time
WST
Temp
°C
App
Temp
°C
Dew
Point
°C
Rel
Hum
%
Delta-T
°C
Wind Press
QNH
hPa
Press
MSL
hPa
Rain since
9am
mm
Dir  Spd
km/h
Gust
km/h
Spd
kts
Gust
kts
13/11:00pm 24.2 21.5 21.3 84 1.9 WSW 37 43 20 23 1007.9 - 0.0
13/10:30pm 24.4 21.2 21.1 82 2.2 WSW 39 46 21 25 1007.7 - 0.0
13/10:00pm 24.6 22.2 21.1 81 2.3 WSW 35 41 19 22 1007.6 - 0.0
13/09:30pm 24.7 22.0 21.2 81 2.3 WSW 37 46 20 25 1007.4 - 0.0
13/09:00pm 24.8 22.6 21.5 82 2.2 W 35 41 19 22 1007.2 1007.1 0.0
13/08:30pm 25.0 22.5 21.7 82 2.2 WSW 37 46 20 25 1006.9 - 0.0
13/08:00pm 25.0 22.0 21.3 80 2.4 WSW 39 46 21 25 1006.6 - 0.0
13/07:30pm 25.3 23.1 21.4 79 2.6 W 35 43 19 23 1006.5 - 0.0
13/07:00pm 26.0 23.4 21.4 76 3.1 W 37 44 20 24 1006.1 - 0.0
13/06:30pm 26.7 24.7 21.2 72 3.6 W 33 41 18 22 1005.7 - 0.0

Other Formats:

Comma delimited format used in spreadsheet applications
http://www.bom.gov.au/fwo/IDW60801/IDW60801.95303.axf

JavaScript Object Notation format (JSON) in row-major order
http://www.bom.gov.au/fwo/IDW60801/IDW60801.95303.json